sensor_id;sensor_type;location;lat;lon;timestamp;temperature;humidity
16114;DHT22;8161;-33.910;151.156;2023-06-10T00:09:39;15.80;1.00
16114;DHT22;8161;-33.910;151.156;2023-06-10T00:12:08;16.50;1.00
16114;DHT22;8161;-33.910;151.156;2023-06-10T00:14:39;16.70;1.00
16114;DHT22;8161;-33.910;151.156;2023-06-10T00:17:07;16.40;1.00
16114;DHT22;8161;-33.910;151.156;2023-06-10T00:22:08;16.60;1.00
16114;DHT22;8161;-33.910;151.156;2023-06-10T00:24:37;16.90;1.00
16114;DHT22;8161;-33.910;151.156;2023-06-10T00:27:04;17.10;1.00
16114;DHT22;8161;-33.910;151.156;2023-06-10T00:29:33;17.20;1.00
16114;DHT22;8161;-33.910;151.156;2023-06-10T00:36:55;16.90;1.00
16114;DHT22;8161;-33.910;151.156;2023-06-10T00:39:22;17.10;1.00
16114;DHT22;8161;-33.910;151.156;2023-06-10T00:41:50;16.90;99.90
16114;DHT22;8161;-33.910;151.156;2023-06-10T00:44:17;17.60;1.00
16114;DHT22;8161;-33.910;151.156;2023-06-10T00:46:44;16.80;99.90
16114;DHT22;8161;-33.910;151.156;2023-06-10T00:49:12;17.30;93.90
16114;DHT22;8161;-33.910;151.156;2023-06-10T00:51:40;17.50;10.50
16114;DHT22;8161;-33.910;151.156;2023-06-10T00:56:35;17.70;1.00
16114;DHT22;8161;-33.910;151.156;2023-06-10T00:59:03;17.60;1.00
16114;DHT22;8161;-33.910;151.156;2023-06-10T01:01:31;17.50;1.00
16114;DHT22;8161;-33.910;151.156;2023-06-10T01:03:58;17.40;1.00
16114;DHT22;8161;-33.910;151.156;2023-06-10T01:06:57;17.90;1.00
16114;DHT22;8161;-33.910;151.156;2023-06-10T01:15:01;18.00;1.00
16114;DHT22;8161;-33.910;151.156;2023-06-10T01:17:30;17.60;1.00
16114;DHT22;8161;-33.910;151.156;2023-06-10T01:22:26;17.70;1.00
16114;DHT22;8161;-33.910;151.156;2023-06-10T01:27:33;17.60;1.00
16114;DHT22;8161;-33.910;151.156;2023-06-10T01:30:14;18.50;1.00
16114;DHT22;8161;-33.910;151.156;2023-06-10T01:32:45;18.10;1.00
16114;DHT22;8161;-33.910;151.156;2023-06-10T01:35:15;17.70;1.00
16114;DHT22;8161;-33.910;151.156;2023-06-10T01:37:45;17.80;1.00
16114;DHT22;8161;-33.910;151.156;2023-06-10T01:40:14;18.20;1.00
16114;DHT22;8161;-33.910;151.156;2023-06-10T01:45:09;18.30;1.00
16114;DHT22;8161;-33.910;151.156;2023-06-10T01:47:37;17.80;1.00
16114;DHT22;8161;-33.910;151.156;2023-06-10T01:50:04;17.80;1.00
16114;DHT22;8161;-33.910;151.156;2023-06-10T01:54:59;18.40;1.00
16114;DHT22;8161;-33.910;151.156;2023-06-10T01:57:26;17.90;1.00
16114;DHT22;8161;-33.910;151.156;2023-06-10T01:59:53;18.10;1.00
16114;DHT22;8161;-33.910;151.156;2023-06-10T02:02:21;18.40;1.00
16114;DHT22;8161;-33.910;151.156;2023-06-10T02:04:48;18.50;1.00
16114;DHT22;8161;-33.910;151.156;2023-06-10T02:09:43;18.70;1.00
16114;DHT22;8161;-33.910;151.156;2023-06-10T02:12:11;18.60;1.00
16114;DHT22;8161;-33.910;151.156;2023-06-10T02:17:05;18.20;1.00
16114;DHT22;8161;-33.910;151.156;2023-06-10T02:19:33;18.80;1.00
16114;DHT22;8161;-33.910;151.156;2023-06-10T02:22:03;18.70;1.00
16114;DHT22;8161;-33.910;151.156;2023-06-10T02:29:29;18.80;1.00
16114;DHT22;8161;-33.910;151.156;2023-06-10T02:31:57;19.10;1.00
16114;DHT22;8161;-33.910;151.156;2023-06-10T02:34:24;19.00;1.00
16114;DHT22;8161;-33.910;151.156;2023-06-10T02:36:55;19.00;1.00
16114;DHT22;8161;-33.910;151.156;2023-06-10T02:39:22;19.00;1.00
16114;DHT22;8161;-33.910;151.156;2023-06-10T02:41:49;19.40;1.00
16114;DHT22;8161;-33.910;151.156;2023-06-10T02:44:17;19.50;1.00
16114;DHT22;8161;-33.910;151.156;2023-06-10T02:46:45;19.30;1.00
16114;DHT22;8161;-33.910;151.156;2023-06-10T02:49:12;19.30;1.00
16114;DHT22;8161;-33.910;151.156;2023-06-10T02:51:39;19.20;1.00
16114;DHT22;8161;-33.910;151.156;2023-06-10T02:54:07;19.00;1.00
16114;DHT22;8161;-33.910;151.156;2023-06-10T02:56:34;19.30;1.00
16114;DHT22;8161;-33.910;151.156;2023-06-10T02:59:02;19.50;1.00
16114;DHT22;8161;-33.910;151.156;2023-06-10T03:03:58;19.40;1.00
16114;DHT22;8161;-33.910;151.156;2023-06-10T03:06:25;19.40;1.00
16114;DHT22;8161;-33.910;151.156;2023-06-10T03:08:52;19.80;1.00
16114;DHT22;8161;-33.910;151.156;2023-06-10T03:11:20;19.50;1.00
16114;DHT22;8161;-33.910;151.156;2023-06-10T03:13:47;19.60;1.00
16114;DHT22;8161;-33.910;151.156;2023-06-10T03:16:14;19.40;1.00
16114;DHT22;8161;-33.910;151.156;2023-06-10T03:18:42;19.30;99.90
16114;DHT22;8161;-33.910;151.156;2023-06-10T03:23:36;19.00;1.00
16114;DHT22;8161;-33.910;151.156;2023-06-10T03:26:05;19.00;1.00
16114;DHT22;8161;-33.910;151.156;2023-06-10T03:28:32;19.10;1.00
16114;DHT22;8161;-33.910;151.156;2023-06-10T03:30:59;19.20;1.00
16114;DHT22;8161;-33.910;151.156;2023-06-10T03:33:29;19.10;1.00
16114;DHT22;8161;-33.910;151.156;2023-06-10T03:35:57;19.30;1.00
16114;DHT22;8161;-33.910;151.156;2023-06-10T03:38:25;19.30;1.00
16114;DHT22;8161;-33.910;151.156;2023-06-10T03:40:52;19.70;1.00
16114;DHT22;8161;-33.910;151.156;2023-06-10T03:43:19;19.60;1.00
16114;DHT22;8161;-33.910;151.156;2023-06-10T03:45:47;19.60;1.00
16114;DHT22;8161;-33.910;151.156;2023-06-10T03:48:14;19.70;1.00
16114;DHT22;8161;-33.910;151.156;2023-06-10T03:50:41;19.40;1.00
16114;DHT22;8161;-33.910;151.156;2023-06-10T03:53:09;19.30;1.00
16114;DHT22;8161;-33.910;151.156;2023-06-10T03:55:36;19.50;1.00
16114;DHT22;8161;-33.910;151.156;2023-06-10T03:58:03;19.50;1.00
16114;DHT22;8161;-33.910;151.156;2023-06-10T04:03:08;19.50;1.00
16114;DHT22;8161;-33.910;151.156;2023-06-10T04:05:41;19.20;1.00
16114;DHT22;8161;-33.910;151.156;2023-06-10T04:08:08;19.30;1.00
16114;DHT22;8161;-33.910;151.156;2023-06-10T04:10:36;19.80;1.00
16114;DHT22;8161;-33.910;151.156;2023-06-10T04:15:31;19.70;1.00
16114;DHT22;8161;-33.910;151.156;2023-06-10T04:18:01;20.00;1.00
16114;DHT22;8161;-33.910;151.156;2023-06-10T04:20:28;19.70;1.00
16114;DHT22;8161;-33.910;151.156;2023-06-10T04:22:56;19.80;1.00
16114;DHT22;8161;-33.910;151.156;2023-06-10T04:25:23;20.20;1.00
16114;DHT22;8161;-33.910;151.156;2023-06-10T04:27:50;20.10;1.00
16114;DHT22;8161;-33.910;151.156;2023-06-10T04:30:18;20.40;1.00
16114;DHT22;8161;-33.910;151.156;2023-06-10T04:32:45;20.20;1.00
16114;DHT22;8161;-33.910;151.156;2023-06-10T04:35:14;20.00;1.00
16114;DHT22;8161;-33.910;151.156;2023-06-10T04:40:09;20.00;1.00
16114;DHT22;8161;-33.910;151.156;2023-06-10T04:42:37;20.20;1.00
16114;DHT22;8161;-33.910;151.156;2023-06-10T04:45:05;20.30;1.00
16114;DHT22;8161;-33.910;151.156;2023-06-10T04:47:33;20.40;1.00
16114;DHT22;8161;-33.910;151.156;2023-06-10T04:50:02;20.30;1.00
16114;DHT22;8161;-33.910;151.156;2023-06-10T04:52:30;20.10;1.00
16114;DHT22;8161;-33.910;151.156;2023-06-10T04:55:03;20.40;1.00
16114;DHT22;8161;-33.910;151.156;2023-06-10T04:57:31;20.20;1.00
16114;DHT22;8161;-33.910;151.156;2023-06-10T04:59:58;20.70;1.00
16114;DHT22;8161;-33.910;151.156;2023-06-10T05:04:53;20.40;1.00
16114;DHT22;8161;-33.910;151.156;2023-06-10T05:09:48;20.40;1.00
16114;DHT22;8161;-33.910;151.156;2023-06-10T05:12:16;20.00;1.00
16114;DHT22;8161;-33.910;151.156;2023-06-10T05:14:43;20.30;1.00
16114;DHT22;8161;-33.910;151.156;2023-06-10T05:17:11;20.20;1.00
16114;DHT22;8161;-33.910;151.156;2023-06-10T05:22:07;20.50;1.00
16114;DHT22;8161;-33.910;151.156;2023-06-10T05:31:59;19.80;1.00
16114;DHT22;8161;-33.910;151.156;2023-06-10T05:34:32;19.70;1.00
16114;DHT22;8161;-33.910;151.156;2023-06-10T05:36:59;19.60;1.00
16114;DHT22;8161;-33.910;151.156;2023-06-10T05:41:54;19.10;1.00
16114;DHT22;8161;-33.910;151.156;2023-06-10T05:44:21;19.40;1.00
16114;DHT22;8161;-33.910;151.156;2023-06-10T05:46:48;19.40;1.00
16114;DHT22;8161;-33.910;151.156;2023-06-10T05:49:16;19.60;1.00
16114;DHT22;8161;-33.910;151.156;2023-06-10T05:51:43;18.70;1.00
16114;DHT22;8161;-33.910;151.156;2023-06-10T05:56:37;18.40;1.00
16114;DHT22;8161;-33.910;151.156;2023-06-10T05:59:05;18.90;1.00
16114;DHT22;8161;-33.910;151.156;2023-06-10T06:03:59;18.50;1.00
16114;DHT22;8161;-33.910;151.156;2023-06-10T06:08:54;18.20;1.00
16114;DHT22;8161;-33.910;151.156;2023-06-10T06:13:48;17.80;1.00
16114;DHT22;8161;-33.910;151.156;2023-06-10T06:18:44;17.70;1.00
16114;DHT22;8161;-33.910;151.156;2023-06-10T06:21:12;18.10;1.00
16114;DHT22;8161;-33.910;151.156;2023-06-10T06:28:33;18.20;1.00
16114;DHT22;8161;-33.910;151.156;2023-06-10T06:35:55;17.80;1.00
16114;DHT22;8161;-33.910;151.156;2023-06-10T06:38:22;17.50;1.00
16114;DHT22;8161;-33.910;151.156;2023-06-10T06:40:49;17.40;1.00
16114;DHT22;8161;-33.910;151.156;2023-06-10T06:43:17;17.00;1.00
16114;DHT22;8161;-33.910;151.156;2023-06-10T06:48:12;17.10;1.00
16114;DHT22;8161;-33.910;151.156;2023-06-10T06:50:43;16.90;1.00
16114;DHT22;8161;-33.910;151.156;2023-06-10T06:55:40;16.70;2.20
16114;DHT22;8161;-33.910;151.156;2023-06-10T06:58:07;17.10;99.90
16114;DHT22;8161;-33.910;151.156;2023-06-10T07:00:34;16.60;99.90
16114;DHT22;8161;-33.910;151.156;2023-06-10T07:03:02;17.00;99.90
16114;DHT22;8161;-33.910;151.156;2023-06-10T07:07:57;16.90;1.00
16114;DHT22;8161;-33.910;151.156;2023-06-10T07:10:25;16.30;99.90
16114;DHT22;8161;-33.910;151.156;2023-06-10T07:12:53;16.20;99.90
16114;DHT22;8161;-33.910;151.156;2023-06-10T07:15:20;16.60;1.00
16114;DHT22;8161;-33.910;151.156;2023-06-10T07:17:47;16.10;1.00
16114;DHT22;8161;-33.910;151.156;2023-06-10T07:20:15;16.40;1.00
16114;DHT22;8161;-33.910;151.156;2023-06-10T07:22:43;16.20;1.00
16114;DHT22;8161;-33.910;151.156;2023-06-10T07:25:10;16.20;25.40
16114;DHT22;8161;-33.910;151.156;2023-06-10T07:27:37;16.40;99.90
16114;DHT22;8161;-33.910;151.156;2023-06-10T07:30:06;16.00;1.00
16114;DHT22;8161;-33.910;151.156;2023-06-10T07:37:28;15.80;99.90
16114;DHT22;8161;-33.910;151.156;2023-06-10T07:39:56;15.70;99.90
16114;DHT22;8161;-33.910;151.156;2023-06-10T07:42:24;16.00;99.90
16114;DHT22;8161;-33.910;151.156;2023-06-10T07:44:51;15.70;99.90
16114;DHT22;8161;-33.910;151.156;2023-06-10T07:47:19;15.20;99.90
16114;DHT22;8161;-33.910;151.156;2023-06-10T07:49:46;15.70;1.00
16114;DHT22;8161;-33.910;151.156;2023-06-10T07:52:13;15.40;1.00
16114;DHT22;8161;-33.910;151.156;2023-06-10T07:54:40;15.60;1.00
16114;DHT22;8161;-33.910;151.156;2023-06-10T07:57:08;15.00;1.00
16114;DHT22;8161;-33.910;151.156;2023-06-10T07:59:35;15.20;1.00
16114;DHT22;8161;-33.910;151.156;2023-06-10T08:04:29;15.40;1.00
16114;DHT22;8161;-33.910;151.156;2023-06-10T08:06:57;15.70;1.00
16114;DHT22;8161;-33.910;151.156;2023-06-10T08:09:24;15.10;1.00
16114;DHT22;8161;-33.910;151.156;2023-06-10T08:11:52;15.10;94.40
16114;DHT22;8161;-33.910;151.156;2023-06-10T08:14:19;14.90;99.90
16114;DHT22;8161;-33.910;151.156;2023-06-10T08:16:46;15.30;99.90
16114;DHT22;8161;-33.910;151.156;2023-06-10T08:19:14;15.00;1.00
16114;DHT22;8161;-33.910;151.156;2023-06-10T08:21:41;15.60;3.60
16114;DHT22;8161;-33.910;151.156;2023-06-10T08:24:10;15.10;1.00
16114;DHT22;8161;-33.910;151.156;2023-06-10T08:26:37;14.90;1.00
16114;DHT22;8161;-33.910;151.156;2023-06-10T08:29:05;14.70;1.00
16114;DHT22;8161;-33.910;151.156;2023-06-10T08:31:35;15.20;51.10
16114;DHT22;8161;-33.910;151.156;2023-06-10T08:34:02;14.70;99.90
16114;DHT22;8161;-33.910;151.156;2023-06-10T08:38:56;15.00;1.00
16114;DHT22;8161;-33.910;151.156;2023-06-10T08:41:25;14.70;1.00
16114;DHT22;8161;-33.910;151.156;2023-06-10T08:46:34;14.90;1.00
16114;DHT22;8161;-33.910;151.156;2023-06-10T08:49:05;14.90;1.00
16114;DHT22;8161;-33.910;151.156;2023-06-10T08:51:35;14.30;1.00
16114;DHT22;8161;-33.910;151.156;2023-06-10T08:54:20;14.70;1.00
16114;DHT22;8161;-33.910;151.156;2023-06-10T08:56:51;14.10;1.00
16114;DHT22;8161;-33.910;151.156;2023-06-10T08:59:21;14.70;1.00
16114;DHT22;8161;-33.910;151.156;2023-06-10T09:01:49;14.10;1.00
16114;DHT22;8161;-33.910;151.156;2023-06-10T09:04:17;14.60;99.90
16114;DHT22;8161;-33.910;151.156;2023-06-10T09:06:45;14.70;99.90
16114;DHT22;8161;-33.910;151.156;2023-06-10T09:09:14;14.40;1.00
16114;DHT22;8161;-33.910;151.156;2023-06-10T09:11:43;14.40;99.90
16114;DHT22;8161;-33.910;151.156;2023-06-10T09:14:11;14.40;99.90
16114;DHT22;8161;-33.910;151.156;2023-06-10T09:16:43;14.00;1.00
16114;DHT22;8161;-33.910;151.156;2023-06-10T09:19:12;14.40;1.00
16114;DHT22;8161;-33.910;151.156;2023-06-10T09:21:40;14.10;1.00
16114;DHT22;8161;-33.910;151.156;2023-06-10T09:24:08;13.80;1.00
16114;DHT22;8161;-33.910;151.156;2023-06-10T09:29:06;14.10;1.00
16114;DHT22;8161;-33.910;151.156;2023-06-10T09:31:40;13.90;1.00
16114;DHT22;8161;-33.910;151.156;2023-06-10T09:34:09;13.90;1.00
16114;DHT22;8161;-33.910;151.156;2023-06-10T09:36:37;14.10;1.00
16114;DHT22;8161;-33.910;151.156;2023-06-10T09:39:05;13.50;1.00
16114;DHT22;8161;-33.910;151.156;2023-06-10T09:41:41;13.50;1.00
16114;DHT22;8161;-33.910;151.156;2023-06-10T09:44:20;13.80;1.00
16114;DHT22;8161;-33.910;151.156;2023-06-10T09:46:49;13.60;1.00
16114;DHT22;8161;-33.910;151.156;2023-06-10T09:49:21;13.60;1.00
16114;DHT22;8161;-33.910;151.156;2023-06-10T09:54:19;13.80;1.00
16114;DHT22;8161;-33.910;151.156;2023-06-10T10:02:05;13.00;1.00
16114;DHT22;8161;-33.910;151.156;2023-06-10T10:04:35;13.40;1.00
16114;DHT22;8161;-33.910;151.156;2023-06-10T10:07:03;13.70;1.00
16114;DHT22;8161;-33.910;151.156;2023-06-10T10:09:39;13.00;1.00
16114;DHT22;8161;-33.910;151.156;2023-06-10T10:12:12;13.10;1.00
16114;DHT22;8161;-33.910;151.156;2023-06-10T10:14:42;13.60;1.00
16114;DHT22;8161;-33.910;151.156;2023-06-10T10:19:48;13.10;1.00
16114;DHT22;8161;-33.910;151.156;2023-06-10T10:22:23;13.10;1.00
16114;DHT22;8161;-33.910;151.156;2023-06-10T10:32:30;13.20;1.00
16114;DHT22;8161;-33.910;151.156;2023-06-10T10:35:12;12.90;1.00
16114;DHT22;8161;-33.910;151.156;2023-06-10T10:37:41;13.50;1.00
16114;DHT22;8161;-33.910;151.156;2023-06-10T10:40:09;13.20;1.00
16114;DHT22;8161;-33.910;151.156;2023-06-10T10:42:37;12.60;1.00
16114;DHT22;8161;-33.910;151.156;2023-06-10T10:45:06;12.50;1.00
16114;DHT22;8161;-33.910;151.156;2023-06-10T10:47:35;12.80;1.00
16114;DHT22;8161;-33.910;151.156;2023-06-10T10:50:19;12.50;1.00
16114;DHT22;8161;-33.910;151.156;2023-06-10T10:55:20;12.50;1.00
16114;DHT22;8161;-33.910;151.156;2023-06-10T10:58:04;13.40;1.00
16114;DHT22;8161;-33.910;151.156;2023-06-10T11:00:36;12.90;1.00
16114;DHT22;8161;-33.910;151.156;2023-06-10T11:03:05;13.00;1.00
16114;DHT22;8161;-33.910;151.156;2023-06-10T11:05:46;13.30;1.00
16114;DHT22;8161;-33.910;151.156;2023-06-10T11:11:26;13.40;1.00
16114;DHT22;8161;-33.910;151.156;2023-06-10T11:16:39;12.80;1.00
16114;DHT22;8161;-33.910;151.156;2023-06-10T11:19:08;12.90;1.00
16114;DHT22;8161;-33.910;151.156;2023-06-10T11:21:58;13.50;1.00
16114;DHT22;8161;-33.910;151.156;2023-06-10T11:24:26;13.50;1.00
16114;DHT22;8161;-33.910;151.156;2023-06-10T11:26:53;13.40;1.00
16114;DHT22;8161;-33.910;151.156;2023-06-10T11:29:21;12.80;1.00
16114;DHT22;8161;-33.910;151.156;2023-06-10T11:31:50;13.40;1.00
16114;DHT22;8161;-33.910;151.156;2023-06-10T11:34:22;12.60;1.00
16114;DHT22;8161;-33.910;151.156;2023-06-10T11:41:52;12.90;1.00
16114;DHT22;8161;-33.910;151.156;2023-06-10T11:44:20;13.10;1.00
16114;DHT22;8161;-33.910;151.156;2023-06-10T11:46:50;12.90;1.00
16114;DHT22;8161;-33.910;151.156;2023-06-10T11:49:20;13.10;1.00
16114;DHT22;8161;-33.910;151.156;2023-06-10T11:54:18;12.50;1.00
16114;DHT22;8161;-33.910;151.156;2023-06-10T11:56:45;12.80;1.00
16114;DHT22;8161;-33.910;151.156;2023-06-10T12:01:44;12.90;1.00
16114;DHT22;8161;-33.910;151.156;2023-06-10T12:04:14;12.70;1.00
16114;DHT22;8161;-33.910;151.156;2023-06-10T12:06:52;12.90;1.00
16114;DHT22;8161;-33.910;151.156;2023-06-10T12:09:25;12.80;1.00
16114;DHT22;8161;-33.910;151.156;2023-06-10T12:12:03;12.10;1.00
16114;DHT22;8161;-33.910;151.156;2023-06-10T12:20:05;12.30;1.00
16114;DHT22;8161;-33.910;151.156;2023-06-10T12:22:51;12.10;1.00
16114;DHT22;8161;-33.910;151.156;2023-06-10T12:25:25;12.20;1.00
16114;DHT22;8161;-33.910;151.156;2023-06-10T12:27:55;12.70;1.00
16114;DHT22;8161;-33.910;151.156;2023-06-10T12:30:24;12.00;1.00
16114;DHT22;8161;-33.910;151.156;2023-06-10T12:35:28;12.10;1.00
16114;DHT22;8161;-33.910;151.156;2023-06-10T12:40:39;12.00;1.00
16114;DHT22;8161;-33.910;151.156;2023-06-10T12:48:19;12.40;1.00
16114;DHT22;8161;-33.910;151.156;2023-06-10T12:50:58;12.00;1.00
16114;DHT22;8161;-33.910;151.156;2023-06-10T12:55:55;12.40;1.00
16114;DHT22;8161;-33.910;151.156;2023-06-10T13:00:51;12.30;1.00
16114;DHT22;8161;-33.910;151.156;2023-06-10T13:03:21;11.70;1.00
16114;DHT22;8161;-33.910;151.156;2023-06-10T13:05:48;11.50;1.00
16114;DHT22;8161;-33.910;151.156;2023-06-10T13:08:16;11.70;1.00
16114;DHT22;8161;-33.910;151.156;2023-06-10T13:13:10;11.90;1.00
16114;DHT22;8161;-33.910;151.156;2023-06-10T13:15:37;11.60;1.00
16114;DHT22;8161;-33.910;151.156;2023-06-10T13:18:05;11.50;1.00
16114;DHT22;8161;-33.910;151.156;2023-06-10T13:20:32;12.00;1.00
16114;DHT22;8161;-33.910;151.156;2023-06-10T13:23:00;12.00;1.00
16114;DHT22;8161;-33.910;151.156;2023-06-10T13:25:28;12.00;1.00
16114;DHT22;8161;-33.910;151.156;2023-06-10T13:27:56;11.50;1.00
16114;DHT22;8161;-33.910;151.156;2023-06-10T13:30:23;11.50;1.00
16114;DHT22;8161;-33.910;151.156;2023-06-10T13:32:51;11.20;1.00
16114;DHT22;8161;-33.910;151.156;2023-06-10T13:35:18;11.50;1.00
16114;DHT22;8161;-33.910;151.156;2023-06-10T13:37:46;11.20;1.00
16114;DHT22;8161;-33.910;151.156;2023-06-10T13:40:13;11.20;1.00
16114;DHT22;8161;-33.910;151.156;2023-06-10T13:50:03;11.80;1.00
16114;DHT22;8161;-33.910;151.156;2023-06-10T13:52:30;11.70;1.00
16114;DHT22;8161;-33.910;151.156;2023-06-10T13:54:57;11.40;1.00
16114;DHT22;8161;-33.910;151.156;2023-06-10T13:57:24;11.00;1.00
16114;DHT22;8161;-33.910;151.156;2023-06-10T13:59:52;11.60;1.00
16114;DHT22;8161;-33.910;151.156;2023-06-10T14:04:46;11.90;1.00
16114;DHT22;8161;-33.910;151.156;2023-06-10T14:07:14;11.70;1.00
16114;DHT22;8161;-33.910;151.156;2023-06-10T14:09:41;11.80;1.00
16114;DHT22;8161;-33.910;151.156;2023-06-10T14:12:09;11.20;1.00
16114;DHT22;8161;-33.910;151.156;2023-06-10T14:14:37;11.70;1.00
16114;DHT22;8161;-33.910;151.156;2023-06-10T14:17:05;11.20;1.00
16114;DHT22;8161;-33.910;151.156;2023-06-10T14:19:32;11.00;1.00
16114;DHT22;8161;-33.910;151.156;2023-06-10T14:21:59;11.20;1.00
16114;DHT22;8161;-33.910;151.156;2023-06-10T14:24:27;11.40;1.00
16114;DHT22;8161;-33.910;151.156;2023-06-10T14:26:57;11.40;1.00
16114;DHT22;8161;-33.910;151.156;2023-06-10T14:29:25;11.30;1.00
16114;DHT22;8161;-33.910;151.156;2023-06-10T14:31:55;11.40;1.00
16114;DHT22;8161;-33.910;151.156;2023-06-10T14:34:23;11.00;1.00
16114;DHT22;8161;-33.910;151.156;2023-06-10T14:36:55;11.00;1.00
16114;DHT22;8161;-33.910;151.156;2023-06-10T14:41:50;10.60;1.00
16114;DHT22;8161;-33.910;151.156;2023-06-10T14:44:19;10.90;1.00
16114;DHT22;8161;-33.910;151.156;2023-06-10T14:46:46;10.90;3.60
16114;DHT22;8161;-33.910;151.156;2023-06-10T14:49:14;10.90;6.00
16114;DHT22;8161;-33.910;151.156;2023-06-10T14:51:41;10.70;4.70
16114;DHT22;8161;-33.910;151.156;2023-06-10T14:54:08;10.50;6.20
16114;DHT22;8161;-33.910;151.156;2023-06-10T14:56:35;11.10;4.10
16114;DHT22;8161;-33.910;151.156;2023-06-10T14:59:03;10.50;1.00
16114;DHT22;8161;-33.910;151.156;2023-06-10T15:01:30;10.60;1.00
16114;DHT22;8161;-33.910;151.156;2023-06-10T15:03:57;10.70;1.00
16114;DHT22;8161;-33.910;151.156;2023-06-10T15:06:24;11.00;1.00
16114;DHT22;8161;-33.910;151.156;2023-06-10T15:08:52;10.80;1.00
16114;DHT22;8161;-33.910;151.156;2023-06-10T15:11:19;10.90;1.00
16114;DHT22;8161;-33.910;151.156;2023-06-10T15:13:48;11.20;1.00
16114;DHT22;8161;-33.910;151.156;2023-06-10T15:16:15;11.00;1.00
16114;DHT22;8161;-33.910;151.156;2023-06-10T15:18:43;11.20;1.10
16114;DHT22;8161;-33.910;151.156;2023-06-10T15:23:38;10.40;8.90
16114;DHT22;8161;-33.910;151.156;2023-06-10T15:26:06;10.50;4.60
16114;DHT22;8161;-33.910;151.156;2023-06-10T15:28:34;11.00;7.70
16114;DHT22;8161;-33.910;151.156;2023-06-10T15:33:29;10.80;15.80
16114;DHT22;8161;-33.910;151.156;2023-06-10T15:35:56;10.70;20.80
16114;DHT22;8161;-33.910;151.156;2023-06-10T15:38:23;10.60;21.10
16114;DHT22;8161;-33.910;151.156;2023-06-10T15:40:50;10.90;22.20
16114;DHT22;8161;-33.910;151.156;2023-06-10T15:43:18;10.80;23.10
16114;DHT22;8161;-33.910;151.156;2023-06-10T15:45:45;10.80;22.60
16114;DHT22;8161;-33.910;151.156;2023-06-10T15:48:12;10.60;22.60
16114;DHT22;8161;-33.910;151.156;2023-06-10T15:50:39;11.10;21.10
16114;DHT22;8161;-33.910;151.156;2023-06-10T15:53:07;11.00;19.10
16114;DHT22;8161;-33.910;151.156;2023-06-10T15:55:34;10.90;14.10
16114;DHT22;8161;-33.910;151.156;2023-06-10T16:00:30;10.50;10.10
16114;DHT22;8161;-33.910;151.156;2023-06-10T16:02:57;10.40;8.50
16114;DHT22;8161;-33.910;151.156;2023-06-10T16:05:26;10.90;9.90
16114;DHT22;8161;-33.910;151.156;2023-06-10T16:07:53;10.30;14.30
16114;DHT22;8161;-33.910;151.156;2023-06-10T16:10:21;10.40;16.60
16114;DHT22;8161;-33.910;151.156;2023-06-10T16:12:51;10.50;17.10
16114;DHT22;8161;-33.910;151.156;2023-06-10T16:15:18;10.20;15.80
16114;DHT22;8161;-33.910;151.156;2023-06-10T16:17:45;10.60;16.30
16114;DHT22;8161;-33.910;151.156;2023-06-10T16:20:13;10.40;16.90
16114;DHT22;8161;-33.910;151.156;2023-06-10T16:25:08;10.60;14.00
16114;DHT22;8161;-33.910;151.156;2023-06-10T16:27:35;10.30;16.90
16114;DHT22;8161;-33.910;151.156;2023-06-10T16:30:05;10.80;19.70
16114;DHT22;8161;-33.910;151.156;2023-06-10T16:32:33;10.60;22.30
16114;DHT22;8161;-33.910;151.156;2023-06-10T16:35:00;10.30;24.70
16114;DHT22;8161;-33.910;151.156;2023-06-10T16:37:31;10.70;26.00
16114;DHT22;8161;-33.910;151.156;2023-06-10T16:39:58;10.80;28.20
16114;DHT22;8161;-33.910;151.156;2023-06-10T16:42:25;10.10;31.30
16114;DHT22;8161;-33.910;151.156;2023-06-10T16:44:53;10.80;33.80
16114;DHT22;8161;-33.910;151.156;2023-06-10T16:47:23;10.40;35.30
16114;DHT22;8161;-33.910;151.156;2023-06-10T16:49:50;10.50;36.40
16114;DHT22;8161;-33.910;151.156;2023-06-10T16:52:17;10.60;32.70
16114;DHT22;8161;-33.910;151.156;2023-06-10T16:54:45;10.70;33.80
16114;DHT22;8161;-33.910;151.156;2023-06-10T16:57:12;10.40;34.40
16114;DHT22;8161;-33.910;151.156;2023-06-10T16:59:42;10.20;35.20
16114;DHT22;8161;-33.910;151.156;2023-06-10T17:02:10;9.90;34.30
16114;DHT22;8161;-33.910;151.156;2023-06-10T17:04:40;10.00;38.00
16114;DHT22;8161;-33.910;151.156;2023-06-10T17:07:07;10.60;37.80
16114;DHT22;8161;-33.910;151.156;2023-06-10T17:09:35;10.70;38.40
16114;DHT22;8161;-33.910;151.156;2023-06-10T17:12:02;10.60;37.70
16114;DHT22;8161;-33.910;151.156;2023-06-10T17:14:30;10.50;38.10
16114;DHT22;8161;-33.910;151.156;2023-06-10T17:16:57;10.10;36.30
16114;DHT22;8161;-33.910;151.156;2023-06-10T17:19:25;10.20;36.90
16114;DHT22;8161;-33.910;151.156;2023-06-10T17:21:53;10.00;37.70
16114;DHT22;8161;-33.910;151.156;2023-06-10T17:24:20;10.30;36.90
16114;DHT22;8161;-33.910;151.156;2023-06-10T17:26:47;10.00;37.10
16114;DHT22;8161;-33.910;151.156;2023-06-10T17:31:42;10.00;39.80
16114;DHT22;8161;-33.910;151.156;2023-06-10T17:34:09;10.10;40.20
16114;DHT22;8161;-33.910;151.156;2023-06-10T17:36:36;10.10;40.80
16114;DHT22;8161;-33.910;151.156;2023-06-10T17:39:03;10.10;40.80
16114;DHT22;8161;-33.910;151.156;2023-06-10T17:41:36;9.80;40.30
16114;DHT22;8161;-33.910;151.156;2023-06-10T17:44:05;10.20;40.00
16114;DHT22;8161;-33.910;151.156;2023-06-10T17:46:32;9.90;39.80
16114;DHT22;8161;-33.910;151.156;2023-06-10T17:48:59;10.20;40.30
16114;DHT22;8161;-33.910;151.156;2023-06-10T17:51:27;10.00;39.70
16114;DHT22;8161;-33.910;151.156;2023-06-10T17:53:54;9.80;39.70
16114;DHT22;8161;-33.910;151.156;2023-06-10T17:56:21;10.40;40.80
16114;DHT22;8161;-33.910;151.156;2023-06-10T17:58:48;11.10;40.90
16114;DHT22;8161;-33.910;151.156;2023-06-10T18:01:16;10.30;41.10
16114;DHT22;8161;-33.910;151.156;2023-06-10T18:03:43;10.20;41.10
16114;DHT22;8161;-33.910;151.156;2023-06-10T18:08:37;10.30;41.20
16114;DHT22;8161;-33.910;151.156;2023-06-10T18:11:05;10.50;39.70
16114;DHT22;8161;-33.910;151.156;2023-06-10T18:15:59;10.20;39.30
16114;DHT22;8161;-33.910;151.156;2023-06-10T18:18:29;10.00;38.10
16114;DHT22;8161;-33.910;151.156;2023-06-10T18:20:56;10.40;39.10
16114;DHT22;8161;-33.910;151.156;2023-06-10T18:23:27;10.20;38.00
16114;DHT22;8161;-33.910;151.156;2023-06-10T18:25:54;9.90;36.60
16114;DHT22;8161;-33.910;151.156;2023-06-10T18:28:21;10.00;36.70
16114;DHT22;8161;-33.910;151.156;2023-06-10T18:30:49;10.10;35.40
16114;DHT22;8161;-33.910;151.156;2023-06-10T18:33:17;10.10;36.20
16114;DHT22;8161;-33.910;151.156;2023-06-10T18:35:45;9.60;36.80
16114;DHT22;8161;-33.910;151.156;2023-06-10T18:38:12;9.60;37.90
16114;DHT22;8161;-33.910;151.156;2023-06-10T18:40:39;10.30;38.60
16114;DHT22;8161;-33.910;151.156;2023-06-10T18:43:06;9.60;38.60
16114;DHT22;8161;-33.910;151.156;2023-06-10T18:48:07;9.60;40.70
16114;DHT22;8161;-33.910;151.156;2023-06-10T18:50:38;10.20;39.80